Latest Weather Observations for Cape Ferguson

IDQ60801

Issued at 7:35 pm EST Saturday 29 November 2014 (issued every 30 minutes, with the page automatically refreshed every 10 minutes)

About weather observations | Map of weather stations | Latest weather observations for QLD | Other Formats
Station Details ID: 032182 Name: CAPE FERGUSON NTC AWS Lat: -19.28 Lon: 147.06 Height: 0.0 m
Data from the previous 72 hours. | See also: Recent months for locations in Queensland
Date/Time
EST
Temp
°C
App
Temp
°C
Dew
Point
Rel
Hum
%
Delta-T
°C
Wind Press
QNH
hPa
Press
MSL
hPa
Rain
since 9 am
mm
Dir
 
Spd
km/h
Gust
km/h
Spd
kts
Gust
kts
29/07:30pm 27.0 - - - - E 32 41 17 22 1011.9 1011.9 -
29/07:00pm 26.7 - - - - E 33 43 18 23 1011.9 1011.9 -
29/06:30pm 26.9 - - - - E 30 37 16 20 1011.5 1011.5 -
29/06:00pm 26.9 - - - - E 32 39 17 21 1011.2 1011.2 -
29/05:30pm 26.9 - - - - E 28 33 15 18 1010.9 1010.9 -
29/05:00pm 26.9 - - - - E 28 35 15 19 1010.6 1010.6 -
29/04:30pm 26.7 - - - - E 28 32 15 17 1010.6 1010.6 -
29/04:00pm 26.8 - - - - E 26 33 14 18 1010.5 1010.5 -
29/03:30pm 26.7 - - - - E 24 30 13 16 1010.5 1010.5 -
29/03:00pm 26.9 - - - - E 24 32 13 17 1010.6 1010.6 -
29/02:30pm 26.8 - - - - E 24 30 13 16 1011.0 1011.0 -
29/02:00pm 26.7 - - - - E 26 32 14 17 1011.2 1011.2 -
29/01:30pm 26.9 - - - - E 30 33 16 18 1011.6 1011.6 -
29/01:00pm 27.1 - - - - E 28 35 15 19 1011.7 1011.7 -
29/12:30pm 26.9 - - - - E 30 35 16 19 1012.0 1012.0 -
29/12:00pm 27.0 - - - - E 30 33 16 18 1012.1 1012.1 -
29/11:30am 26.9 - - - - E 30 37 16 20 1012.6 1012.6 -
29/11:00am 27.0 - - - - E 28 33 15 18 1012.8 1012.8 -
29/10:30am 26.9 - - - - ESE 28 35 15 19 1013.0 1013.0 -
29/10:00am 26.9 - - - - E 32 37 17 20 1013.1 1013.1 -
29/09:30am 25.9 - - - - SE 20 26 11 14 1013.1 1013.1 -
29/09:00am 25.8 - - - - SE 20 30 11 16 1013.2 1013.2 -
29/08:30am 25.4 - - - - SSE 26 32 14 17 1013.4 1013.4 -
29/08:00am 25.4 - - - - SSE 24 28 13 15 1013.2 1013.2 -
29/07:30am 25.5 - - - - SSE 22 28 12 15 1012.8 1012.8 -
29/07:00am 25.2 - - - - SSE 22 26 12 14 1012.5 1012.5 -
29/06:30am 25.0 - - - - SSE 22 30 12 16 1012.3 1012.3 -
29/06:00am 25.1 - - - - SSE 19 24 10 13 1012.0 1012.0 -
29/05:30am 25.2 - - - - SSE 19 22 10 12 1011.9 1011.9 -
29/05:00am 25.1 - - - - SSE 22 26 12 14 1011.5 1011.5 -
29/04:30am 25.0 - - - - SSE 22 28 12 15 1011.3 1011.3 -
29/04:00am 25.0 - - - - SSE 19 24 10 13 1011.0 1011.0 -
29/03:30am 24.9 - - - - SSE 20 24 11 13 1011.2 1011.2 -
29/03:00am 25.0 - - - - SSE 22 26 12 14 1010.9 1010.9 -
29/02:30am 24.9 - - - - SSE 24 28 13 15 1010.9 1010.9 -
29/02:00am 25.6 - - - - SSE 22 28 12 15 1011.0 1011.0 -
29/01:30am 25.9 - - - - SE 24 32 13 17 1011.3 1011.3 -
29/01:00am 26.2 - - - - SE 17 22 9 12 1011.5 1011.5 -
29/12:30am 26.6 - - - - E 30 35 16 19 1012.1 1012.1 -
29/12:00am 26.8 - - - - ESE 28 37 15 20 1012.6 1012.6 -
 
Date/Time
EST
Temp
°C
App
Temp
°C
Dew
Point
Rel
Hum
%
Delta-T
°C
Wind Press
QNH
hPa
Press
MSL
hPa
Rain
since 9 am
mm
Dir
 
Spd
km/h
Gust
km/h
Spd
kts
Gust
kts
28/11:30pm 26.8 - - - - ESE 30 39 16 21 1013.0 1013.0 -
28/11:00pm 26.8 - - - - ESE 32 41 17 22 1013.3 1013.3 -
28/10:30pm 26.9 - - - - E 33 41 18 22 1013.3 1013.3 -
28/10:00pm 27.1 - - - - ESE 33 41 18 22 1013.4 1013.4 -
28/09:30pm 26.8 - - - - E 32 39 17 21 1013.5 1013.5 -
28/09:00pm 27.1 - - - - E 30 35 16 19 1013.3 1013.3 -
28/08:30pm 27.2 - - - - E 28 33 15 18 1012.9 1012.9 -
28/08:00pm 27.3 - - - - E 26 33 14 18 1012.6 1012.6 -
28/07:30pm 27.2 - - - - E 24 32 13 17 1012.3 1012.3 -
28/07:00pm 27.0 - - - - E 26 32 14 17 1012.1 1012.1 -
28/06:30pm 27.2 - - - - E 26 30 14 16 1011.7 1011.7 -
28/06:00pm 27.5 - - - - E 24 30 13 16 1011.5 1011.5 -
28/05:30pm 27.6 - - - - E 26 32 14 17 1011.5 1011.5 -
28/05:00pm 27.2 - - - - ENE 24 30 13 16 1011.2 1011.2 -
28/04:30pm 27.1 - - - - ENE 22 26 12 14 1010.9 1010.9 -
28/04:00pm 27.3 - - - - ENE 22 28 12 15 1010.7 1010.7 -
28/03:30pm 27.2 - - - - ENE 20 26 11 14 1010.7 1010.7 -
28/03:00pm 27.4 - - - - ENE 17 26 9 14 1010.8 1010.8 -
28/02:30pm 27.1 - - - - ENE 20 24 11 13 1011.4 1011.4 -
28/02:00pm 26.9 - - - - E 22 28 12 15 1011.8 1011.8 -
28/01:30pm 26.9 - - - - E 22 28 12 15 1012.0 1012.0 -
28/01:00pm 26.9 - - - - E 22 28 12 15 1012.5 1012.5 -
28/12:30pm 26.9 - - - - E 24 30 13 16 1012.9 1012.9 -
28/12:00pm 27.0 - - - - E 26 30 14 16 1013.0 1013.0 -
28/11:30am 27.0 - - - - E 26 30 14 16 1013.1 1013.1 -
28/11:00am 27.0 - - - - E 24 28 13 15 1013.3 1013.3 -
28/10:30am 26.8 - - - - E 24 30 13 16 1013.6 1013.6 -
28/10:00am 26.8 - - - - E 22 28 12 15 1013.6 1013.6 -
28/09:30am 26.7 - - - - ESE 20 26 11 14 1013.7 1013.7 -
28/09:00am 26.6 - - - - SE 22 28 12 15 1013.7 1013.7 -
28/08:30am 26.2 - - - - SE 19 24 10 13 1013.3 1013.3 -
28/08:00am 25.8 - - - - SE 17 22 9 12 1013.0 1013.0 -
28/07:30am 25.4 - - - - SE 19 24 10 13 1012.8 1012.8 -
28/07:00am 25.3 - - - - SSE 17 20 9 11 1012.6 1012.6 -
28/06:30am 24.9 - - - - SSE 19 22 10 12 1012.3 1012.3 -
28/06:00am 24.9 - - - - SSE 20 24 11 13 1012.1 1012.1 -
28/05:30am 25.2 - - - - SE 17 22 9 12 1011.8 1011.8 -
28/05:00am 26.5 - - - - E 20 24 11 13 1011.7 1011.7 -
28/04:30am 26.5 - - - - E 20 26 11 14 1011.5 1011.5 -
28/04:00am 26.5 - - - - E 20 28 11 15 1011.4 1011.4 -
28/03:30am 26.5 - - - - E 22 26 12 14 1011.4 1011.4 -
28/03:00am 26.6 - - - - E 19 24 10 13 1011.4 1011.4 -
28/02:30am 26.6 - - - - E 20 26 11 14 1011.3 1011.3 -
28/02:00am 26.3 - - - - E 19 26 10 14 1011.4 1011.4 -
28/01:30am 26.6 - - - - E 20 26 11 14 1011.7 1011.7 -
28/01:00am 26.6 - - - - E 19 24 10 13 1012.0 1012.0 -
28/12:30am 26.7 - - - - E 19 24 10 13 1012.1 1012.1 -
28/12:00am 26.7 - - - - E 17 22 9 12 1012.2 1012.2 -
 
Date/Time
EST
Temp
°C
App
Temp
°C
Dew
Point
Rel
Hum
%
Delta-T
°C
Wind Press
QNH
hPa
Press
MSL
hPa
Rain
since 9 am
mm
Dir
 
Spd
km/h
Gust
km/h
Spd
kts
Gust
kts
27/11:30pm 26.7 - - - - E 17 22 9 12 1012.3 1012.3 -
27/11:00pm 26.8 - - - - E 19 24 10 13 1012.4 1012.4 -
27/10:30pm 26.9 - - - - E 17 20 9 11 1012.8 1012.8 -
27/10:00pm 26.8 - - - - E 19 24 10 13 1012.7 1012.7 -
27/09:30pm 26.8 - - - - E 19 24 10 13 1012.7 1012.7 -
27/09:00pm 27.0 - - - - E 17 20 9 11 1012.7 1012.7 -
27/08:30pm 27.0 - - - - E 19 24 10 13 1012.5 1012.5 -
27/08:00pm 26.9 - - - - E 22 26 12 14 1012.2 1012.2 -
27/07:30pm 27.0 - - - - E 22 26 12 14 1011.9 1011.9 -
27/07:00pm 27.0 - - - - ENE 22 26 12 14 1011.8 1011.8 -
27/06:30pm 27.2 - - - - ENE 17 22 9 12 1011.5 1011.5 -
27/06:00pm 26.9 - - - - ENE 17 20 9 11 1011.3 1011.3 -
27/05:30pm 26.9 - - - - ENE 19 22 10 12 1010.9 1010.9 -
27/05:00pm 27.0 - - - - ENE 20 24 11 13 1010.7 1010.7 -
27/04:30pm 27.2 - - - - ENE 17 20 9 11 1010.5 1010.5 -
27/04:00pm 27.1 - - - - ENE 17 20 9 11 1010.7 1010.7 -
27/03:30pm 27.0 - - - - ENE 17 22 9 12 1010.7 1010.7 -
27/03:00pm 26.9 - - - - E 19 24 10 13 1010.9 1010.9 -
27/02:30pm 26.8 - - - - E 19 24 10 13 1011.2 1011.2 -
27/02:00pm 26.8 - - - - E 19 24 10 13 1011.4 1011.4 -
27/01:30pm 26.8 - - - - E 15 22 8 12 1011.5 1011.5 -
27/01:00pm 26.9 - - - - E 19 22 10 12 1011.9 1011.9 -
27/12:30pm 26.9 - - - - E 19 24 10 13 1012.1 1012.1 -
27/12:00pm 26.9 - - - - E 20 26 11 14 1012.3 1012.3 -
27/11:30am 26.8 - - - - E 19 22 10 12 1012.7 1012.7 -
27/11:00am 27.0 - - - - E 17 22 9 12 1013.1 1013.1 -
27/10:30am 26.6 - - - - ESE 13 19 7 10 1013.4 1013.4 -
27/10:00am 26.5 - - - - ESE 13 20 7 11 1013.5 1013.5 -
27/09:30am 26.1 - - - - SE 13 17 7 9 1013.7 1013.7 -
27/09:00am 26.0 - - - - SSE 15 20 8 11 1013.9 1013.9 -
27/08:30am 25.4 - - - - SSE 19 22 10 12 1013.9 1013.9 -
27/08:00am 25.2 - - - - SSE 24 30 13 16 1014.0 1014.0 -
27/07:30am 25.6 - - - - SSE 17 22 9 12 1013.9 1013.9 -
27/07:00am 25.7 - - - - SSE 15 19 8 10 1013.7 1013.7 -
27/06:30am 25.7 - - - - SSE 17 20 9 11 1013.5 1013.5 -
27/06:00am 26.6 - - - - E 19 24 10 13 1013.0 1013.0 -
27/05:30am 26.6 - - - - E 17 20 9 11 1012.8 1012.8 -
27/05:00am 26.6 - - - - E 19 24 10 13 1012.6 1012.6 -
27/04:30am 26.6 - - - - E 19 26 10 14 1012.3 1012.3 -
27/04:00am 26.5 - - - - E 22 28 12 15 1012.0 1012.0 -
27/03:30am 26.5 - - - - E 22 28 12 15 1011.8 1011.8 -
27/03:00am 26.6 - - - - E 24 28 13 15 1011.8 1011.8 -
27/02:30am 26.5 - - - - E 19 26 10 14 1011.6 1011.6 -
27/02:00am 26.7 - - - - E 20 26 11 14 1011.6 1011.6 -
27/01:30am 26.7 - - - - E 22 28 12 15 1012.0 1012.0 -
27/01:00am 27.0 - - - - E 22 28 12 15 1012.1 1012.1 -
27/12:30am 26.9 - - - - E 24 28 13 15 1012.3 1012.3 -
27/12:00am 26.9 - - - - E 22 28 12 15 1012.6 1012.6 -
 
Date/Time
EST
Temp
°C
App
Temp
°C
Dew
Point
Rel
Hum
%
Delta-T
°C
Wind Press
QNH
hPa
Press
MSL
hPa
Rain
since 9 am
mm
Dir
 
Spd
km/h
Gust
km/h
Spd
kts
Gust
kts
26/11:30pm 27.2 - - - - E 20 24 11 13 1012.8 1012.8 -
26/11:00pm 27.0 - - - - E 20 26 11 14 1013.1 1013.1 -
26/10:30pm 27.0 - - - - E 20 26 11 14 1013.2 1013.2 -
26/10:00pm 27.1 - - - - E 20 28 11 15 1013.1 1013.1 -
26/09:30pm 27.3 - - - - E 22 26 12 14 1013.1 1013.1 -
26/09:00pm 27.2 - - - - E 22 32 12 17 1012.9 1012.9 -
26/08:30pm 27.3 - - - - E 24 32 13 17 1012.7 1012.7 -
26/08:00pm 27.3 - - - - E 28 33 15 18 1012.6 1012.6 -

Other Formats:

Comma delimited format used in spreadsheet applications
http://www.bom.gov.au/fwo/IDQ60801/IDQ60801.94297.axf

JavaScript Object Notation format (JSON) in row-major order
http://www.bom.gov.au/fwo/IDQ60801/IDQ60801.94297.json